• Join FlightAware (Why Join?)
  • Login
  • US Flag 
10:54AM EDT


 

Airport Tracker/Info


-or-


 

Live Flight TrackerFlight Track Log ✈ SWA234 ✈ 08-May-2012 ✈ KPVD - KBWI

Flight Track Log - Related Links

Times and Time Zones

All times are in EDT time to prevent confusion due to time zone crossing. See the SWA234 flight status page for this flight to view local times or setup timezone preferences in your user account.

Time Position Orientation Groundspeed Altitude Reporting Facility
EDT Latitude Longitude Course Direction KTS MPH feet Rate Location/Type
01:42PM 41.7083 -71.4389 265° West 136 157 800  Level Boston Center
01:42PM 41.7064 -71.4669 298° West 174 200 2,100 3,900 Climbing Boston Center
01:44PM 41.7531 -71.5858 297° West 265 305 8,600 3,720 Climbing Boston Center
01:45PM 41.7850 -71.6717 282° West 265 305 11,400 2,760 Climbing Boston Center
01:46PM 41.8025 -71.7800 281° West 302 348 14,200 3,000 Climbing Boston Center
01:47PM 41.8219 -71.9108 281° West 342 394 17,400 3,180 Climbing Boston Center
01:48PM 41.8433 -72.0639 279° West 370 426 20,600 2,880 Climbing Boston Center
01:49PM 41.8603 -72.2117 282° West 384 442 23,200 2,580 Climbing Boston Center
01:50PM 41.8836 -72.3619 280° West 402 463 25,800 2,400 Climbing Boston Center
01:51PM 41.9044 -72.5183 279° West 417 480 28,000 2,100 Climbing Boston Center
01:52PM 41.9208 -72.6606 243° Southwest 428 493 30,100 2,400 Climbing Boston Center
01:53PM 41.8706 -72.7942 223° Southwest 406 467 32,900 1,920 Climbing Boston Center
01:54PM 41.7931 -72.8911 227° Southwest 418 481 34,000 540 Climbing Boston Center
01:55PM 41.7069 -73.0131 223° Southwest 418 481 34,000  Level Boston Center
01:56PM 41.6231 -73.1178 238° Southwest 418 481 34,000  Level Boston Center
01:57PM 41.5661 -73.2392 244° Southwest 411 473 34,000  Level Boston Center
01:58PM 41.4806 -73.4739 242° Southwest 381 438 34,000  Level New York Center
01:59PM 41.4297 -73.6019 182° South 392 451 34,000  Level New York Center
02:00PM 41.2922 -73.6069 212° Southwest 349 402 34,000  Level New York Center
02:01PM 41.1986 -73.6858 234° Southwest 383 441 34,000 -840 Level New York Center
02:02PM 41.1331 -73.8042 234° Southwest 389 448 32,400 -2,040 Descending New York Center
02:04PM 41.0719 -73.9142 232° Southwest 402 463 30,000 -1,200 Descending New York Center
02:05PM 41.0019 -74.0347 234° Southwest 413 475 30,000 -480 Level New York Center
02:05PM 40.9472 -74.1336 233° Southwest 418 481 29,100 -2,040 Descending New York Center
02:06PM 40.8569 -74.2911 233° Southwest 418 481 26,000 -1,560 Descending New York Center
02:08PM 40.7867 -74.4161 229° Southwest 418 481 26,000  Level New York Center
02:08PM 40.7167 -74.5219 233° Southwest 413 475 26,000  Level New York Center
02:09PM 40.6503 -74.6361 230° Southwest 403 464 26,000  Level New York Center
02:11PM 40.5822 -74.7442 228° Southwest 397 457 26,000  Level New York Center
02:11PM 40.5078 -74.8517 226° Southwest 397 457 26,000  Level New York Center
02:12PM 40.4400 -74.9431 227° Southwest 390 449 26,000  Level New York Center
02:13PM 40.3631 -75.0531 227° Southwest 384 442 26,000 -900 Level New York Center
02:15PM 40.2969 -75.1469 227° Southwest 384 442 24,200 -2,160 Descending New York Center
02:16PM 40.2200 -75.2533 226° Southwest 384 442 21,300 -2,400 Descending New York Center
02:17PM 40.1364 -75.3675 227° Southwest 379 436 19,000 -1,200 Descending New York Center
02:18PM 40.0725 -75.4583 226° Southwest 361 415 19,000  Level New York Center
02:19PM 40.0042 -75.5511 226° Southwest 356 410 19,000  Level New York Center
02:20PM 39.9444 -75.6311 232° Southwest 344 396 19,000  Level New York Center
02:21PM 39.9019 -75.7011 236° Southwest 314 361 19,000 -600 Level New York Center
02:22PM 39.8497 -75.8031 235° Southwest 293 337 17,900 -1,260 Descending New York Center
02:23PM 39.8114 -75.8731 238° Southwest 280 322 16,500 -1,560 Descending New York Center
02:25PM 39.7333 -76.0333 232° Southwest 275 316 13,600 -1,620 Descending Potomac TRACON
02:26PM 39.6833 -76.1167 237° Southwest 278 320 12,100 -1,320 Descending Potomac TRACON
02:26PM 39.6500 -76.1833 237° Southwest 269 310 11,200 -1,380 Descending Potomac TRACON
02:28PM 39.6000 -76.2833 255° West 262 302 9,400 -1,560 Descending Potomac TRACON
02:29PM 39.5833 -76.3667 270° West 257 296 8,000 -1,500 Descending Potomac TRACON
02:29PM 39.5833 -76.4500 255° West 247 284 6,600 -1,680 Descending Potomac TRACON
02:31PM 39.5667 -76.5333 237° Southwest 238 274 4,700 -1,320 Descending Potomac TRACON
02:31PM 39.5333 -76.6000 252° West 219 252 4,000 -420 Descending Potomac TRACON
02:32PM 39.5167 -76.6667 229° Southwest 190 219 4,000  Level Potomac TRACON
02:33PM 39.4833 -76.7167 207° Southwest 189 217 4,000  Level Potomac TRACON
02:34PM 39.4333 -76.7500 229° Southwest 188 216 4,000  Level Potomac TRACON
02:35PM 39.4000 -76.8000 207° Southwest 188 216 4,000  Level Potomac TRACON
02:36PM 39.3500 -76.8333 218° Southwest 173 199 4,000 -300 Level Potomac TRACON
02:37PM 39.3167 -76.8667 218° Southwest 146 168 3,500 -540 Descending Potomac TRACON
02:38PM 39.2833 -76.9000 218° Southwest 148 170 3,000 -420 Descending Potomac TRACON
02:39PM 39.2667 -76.9167 166° South 156 180 2,700 -600 Descending Potomac TRACON
02:41PM 39.2167 -76.9000 131° Southeast 157 181 1,900 -300 Descending Potomac TRACON
02:42PM 39.1833 -76.8500 90° East 175 201 2,100 -180 Climbing Potomac TRACON
02:43PM 39.1833 -76.7833 90° East 184 212 1,600 -600 Descending Potomac TRACON
02:44PM 39.1833 -76.7333 90° East 149 171 900 -720 Descending Potomac TRACON